sensor_id;sensor_type;location;lat;lon;timestamp;P1;durP1;ratioP1;P2;durP2;ratioP2
68744;SDS011;73143;45.456;11.064;2023-12-28T00:00:47;59.90;;;37.00;;
68744;SDS011;73143;45.456;11.064;2023-12-28T00:03:24;55.80;;;35.90;;
68744;SDS011;73143;45.456;11.064;2023-12-28T00:06:00;52.00;;;33.30;;
68744;SDS011;73143;45.456;11.064;2023-12-28T00:08:38;49.00;;;32.80;;
68744;SDS011;73143;45.456;11.064;2023-12-28T00:11:23;56.50;;;33.30;;
68744;SDS011;73143;45.456;11.064;2023-12-28T00:14:00;51.20;;;30.00;;
68744;SDS011;73143;45.456;11.064;2023-12-28T00:16:37;46.00;;;30.00;;
68744;SDS011;73143;45.456;11.064;2023-12-28T00:19:14;48.00;;;30.10;;
68744;SDS011;73143;45.456;11.064;2023-12-28T00:21:50;47.40;;;29.00;;
68744;SDS011;73143;45.456;11.064;2023-12-28T00:24:27;43.40;;;28.50;;
68744;SDS011;73143;45.456;11.064;2023-12-28T00:27:04;42.90;;;28.40;;
68744;SDS011;73143;45.456;11.064;2023-12-28T00:29:41;46.10;;;28.00;;
68744;SDS011;73143;45.456;11.064;2023-12-28T00:32:17;45.40;;;29.30;;
68744;SDS011;73143;45.456;11.064;2023-12-28T00:34:54;44.90;;;30.00;;
68744;SDS011;73143;45.456;11.064;2023-12-28T00:37:30;50.50;;;30.60;;
68744;SDS011;73143;45.456;11.064;2023-12-28T00:40:11;45.20;;;29.80;;
68744;SDS011;73143;45.456;11.064;2023-12-28T00:42:47;49.70;;;31.70;;
68744;SDS011;73143;45.456;11.064;2023-12-28T00:45:23;48.00;;;29.90;;
68744;SDS011;73143;45.456;11.064;2023-12-28T00:47:59;46.60;;;31.00;;
68744;SDS011;73143;45.456;11.064;2023-12-28T00:50:37;47.70;;;30.10;;
68744;SDS011;73143;45.456;11.064;2023-12-28T00:53:13;48.30;;;30.00;;
68744;SDS011;73143;45.456;11.064;2023-12-28T00:55:49;48.80;;;31.60;;
68744;SDS011;73143;45.456;11.064;2023-12-28T00:58:25;53.80;;;32.10;;
68744;SDS011;73143;45.456;11.064;2023-12-28T01:01:02;52.50;;;33.50;;
68744;SDS011;73143;45.456;11.064;2023-12-28T01:03:39;50.90;;;34.10;;
68744;SDS011;73143;45.456;11.064;2023-12-28T01:06:16;51.80;;;34.00;;
68744;SDS011;73143;45.456;11.064;2023-12-28T01:08:52;58.30;;;34.60;;
68744;SDS011;73143;45.456;11.064;2023-12-28T01:11:28;54.70;;;35.70;;
68744;SDS011;73143;45.456;11.064;2023-12-28T01:14:05;60.40;;;35.90;;
68744;SDS011;73143;45.456;11.064;2023-12-28T01:16:42;54.20;;;34.30;;
68744;SDS011;73143;45.456;11.064;2023-12-28T01:19:19;52.60;;;35.10;;
68744;SDS011;73143;45.456;11.064;2023-12-28T01:21:57;54.00;;;34.80;;
68744;SDS011;73143;45.456;11.064;2023-12-28T01:24:32;56.20;;;35.50;;
68744;SDS011;73143;45.456;11.064;2023-12-28T01:27:09;58.00;;;37.40;;
68744;SDS011;73143;45.456;11.064;2023-12-28T01:29:45;60.50;;;37.70;;
68744;SDS011;73143;45.456;11.064;2023-12-28T01:32:22;62.30;;;37.40;;
68744;SDS011;73143;45.456;11.064;2023-12-28T01:34:59;53.30;;;36.10;;
68744;SDS011;73143;45.456;11.064;2023-12-28T01:37:34;52.10;;;35.00;;
68744;SDS011;73143;45.456;11.064;2023-12-28T01:40:14;51.00;;;33.90;;
68744;SDS011;73143;45.456;11.064;2023-12-28T01:42:51;50.00;;;32.20;;
68744;SDS011;73143;45.456;11.064;2023-12-28T01:45:28;47.50;;;31.20;;
68744;SDS011;73143;45.456;11.064;2023-12-28T01:48:06;48.40;;;32.20;;
68744;SDS011;73143;45.456;11.064;2023-12-28T01:50:44;52.40;;;30.80;;
68744;SDS011;73143;45.456;11.064;2023-12-28T01:53:21;47.90;;;29.90;;
68744;SDS011;73143;45.456;11.064;2023-12-28T01:55:59;49.20;;;30.50;;
68744;SDS011;73143;45.456;11.064;2023-12-28T01:58:36;46.60;;;29.00;;
68744;SDS011;73143;45.456;11.064;2023-12-28T02:01:14;47.20;;;31.20;;
68744;SDS011;73143;45.456;11.064;2023-12-28T02:03:52;43.50;;;30.20;;
68744;SDS011;73143;45.456;11.064;2023-12-28T02:06:28;49.60;;;30.70;;
68744;SDS011;73143;45.456;11.064;2023-12-28T02:09:05;50.20;;;31.30;;
68744;SDS011;73143;45.456;11.064;2023-12-28T02:11:41;46.70;;;30.10;;
68744;SDS011;73143;45.456;11.064;2023-12-28T02:14:17;49.80;;;31.00;;
68744;SDS011;73143;45.456;11.064;2023-12-28T02:16:57;45.20;;;30.70;;
68744;SDS011;73143;45.456;11.064;2023-12-28T02:19:44;49.90;;;31.90;;
68744;SDS011;73143;45.456;11.064;2023-12-28T02:22:26;50.70;;;31.60;;
68744;SDS011;73143;45.456;11.064;2023-12-28T02:25:07;46.60;;;32.80;;
68744;SDS011;73143;45.456;11.064;2023-12-28T02:27:46;57.20;;;35.10;;
68744;SDS011;73143;45.456;11.064;2023-12-28T02:30:24;53.50;;;34.90;;
68744;SDS011;73143;45.456;11.064;2023-12-28T02:33:10;51.60;;;33.00;;
68744;SDS011;73143;45.456;11.064;2023-12-28T02:35:54;44.80;;;30.30;;
68744;SDS011;73143;45.456;11.064;2023-12-28T02:41:10;47.00;;;28.60;;
68744;SDS011;73143;45.456;11.064;2023-12-28T02:43:46;45.70;;;29.90;;
68744;SDS011;73143;45.456;11.064;2023-12-28T02:46:24;45.00;;;28.40;;
68744;SDS011;73143;45.456;11.064;2023-12-28T02:49:01;46.60;;;29.30;;
68744;SDS011;73143;45.456;11.064;2023-12-28T02:51:37;44.60;;;28.70;;
68744;SDS011;73143;45.456;11.064;2023-12-28T02:54:14;42.20;;;27.30;;
68744;SDS011;73143;45.456;11.064;2023-12-28T02:56:51;42.70;;;28.90;;
68744;SDS011;73143;45.456;11.064;2023-12-28T02:59:27;44.10;;;28.10;;
68744;SDS011;73143;45.456;11.064;2023-12-28T03:02:03;43.90;;;28.80;;
68744;SDS011;73143;45.456;11.064;2023-12-28T03:04:39;43.30;;;28.70;;
68744;SDS011;73143;45.456;11.064;2023-12-28T03:07:17;42.10;;;27.70;;
68744;SDS011;73143;45.456;11.064;2023-12-28T03:09:53;45.90;;;29.40;;
68744;SDS011;73143;45.456;11.064;2023-12-28T03:12:29;43.80;;;29.20;;
68744;SDS011;73143;45.456;11.064;2023-12-28T03:15:07;45.60;;;27.70;;
68744;SDS011;73143;45.456;11.064;2023-12-28T03:17:44;43.80;;;28.40;;
68744;SDS011;73143;45.456;11.064;2023-12-28T03:20:20;43.00;;;27.00;;
68744;SDS011;73143;45.456;11.064;2023-12-28T03:22:57;39.10;;;26.20;;
68744;SDS011;73143;45.456;11.064;2023-12-28T03:25:33;39.00;;;25.50;;
68744;SDS011;73143;45.456;11.064;2023-12-28T03:28:11;39.90;;;25.60;;
68744;SDS011;73143;45.456;11.064;2023-12-28T03:30:48;35.30;;;24.50;;
68744;SDS011;73143;45.456;11.064;2023-12-28T03:33:25;34.70;;;23.00;;
68744;SDS011;73143;45.456;11.064;2023-12-28T03:36:01;36.80;;;23.00;;
68744;SDS011;73143;45.456;11.064;2023-12-28T03:38:38;35.50;;;24.10;;
68744;SDS011;73143;45.456;11.064;2023-12-28T03:41:20;35.00;;;22.60;;
68744;SDS011;73143;45.456;11.064;2023-12-28T03:43:56;35.90;;;23.80;;
68744;SDS011;73143;45.456;11.064;2023-12-28T03:46:33;37.90;;;23.90;;
68744;SDS011;73143;45.456;11.064;2023-12-28T03:49:10;38.30;;;24.70;;
68744;SDS011;73143;45.456;11.064;2023-12-28T03:51:49;31.40;;;21.20;;
68744;SDS011;73143;45.456;11.064;2023-12-28T03:54:26;30.30;;;19.80;;
68744;SDS011;73143;45.456;11.064;2023-12-28T03:57:02;27.30;;;18.20;;
68744;SDS011;73143;45.456;11.064;2023-12-28T03:59:39;33.00;;;19.40;;
68744;SDS011;73143;45.456;11.064;2023-12-28T04:02:16;34.10;;;21.40;;
68744;SDS011;73143;45.456;11.064;2023-12-28T04:04:52;35.70;;;23.20;;
68744;SDS011;73143;45.456;11.064;2023-12-28T04:07:29;34.50;;;23.10;;
68744;SDS011;73143;45.456;11.064;2023-12-28T04:10:08;36.80;;;24.00;;
68744;SDS011;73143;45.456;11.064;2023-12-28T04:12:46;33.60;;;22.10;;
68744;SDS011;73143;45.456;11.064;2023-12-28T04:15:27;38.80;;;22.90;;
68744;SDS011;73143;45.456;11.064;2023-12-28T04:18:04;33.30;;;21.00;;
68744;SDS011;73143;45.456;11.064;2023-12-28T04:20:43;29.10;;;19.70;;
68744;SDS011;73143;45.456;11.064;2023-12-28T04:23:19;30.50;;;19.80;;
68744;SDS011;73143;45.456;11.064;2023-12-28T04:25:57;32.00;;;20.90;;
68744;SDS011;73143;45.456;11.064;2023-12-28T04:28:34;35.00;;;23.00;;
68744;SDS011;73143;45.456;11.064;2023-12-28T04:31:11;35.80;;;24.40;;
68744;SDS011;73143;45.456;11.064;2023-12-28T04:33:48;39.40;;;25.30;;
68744;SDS011;73143;45.456;11.064;2023-12-28T04:36:25;41.50;;;25.10;;
68744;SDS011;73143;45.456;11.064;2023-12-28T04:39:02;38.70;;;26.00;;
68744;SDS011;73143;45.456;11.064;2023-12-28T04:41:39;41.30;;;25.90;;
68744;SDS011;73143;45.456;11.064;2023-12-28T04:44:16;43.40;;;27.50;;
68744;SDS011;73143;45.456;11.064;2023-12-28T04:46:52;41.70;;;28.20;;
68744;SDS011;73143;45.456;11.064;2023-12-28T04:49:28;43.80;;;29.00;;
68744;SDS011;73143;45.456;11.064;2023-12-28T04:52:05;45.40;;;28.10;;
68744;SDS011;73143;45.456;11.064;2023-12-28T04:54:44;44.30;;;28.90;;
68744;SDS011;73143;45.456;11.064;2023-12-28T04:57:20;43.50;;;28.60;;
68744;SDS011;73143;45.456;11.064;2023-12-28T04:59:57;45.70;;;29.10;;
68744;SDS011;73143;45.456;11.064;2023-12-28T05:02:34;46.80;;;29.90;;
68744;SDS011;73143;45.456;11.064;2023-12-28T05:05:14;49.10;;;31.00;;
68744;SDS011;73143;45.456;11.064;2023-12-28T05:07:50;49.10;;;31.80;;
68744;SDS011;73143;45.456;11.064;2023-12-28T05:10:28;42.80;;;28.30;;
68744;SDS011;73143;45.456;11.064;2023-12-28T05:13:05;44.90;;;30.70;;
68744;SDS011;73143;45.456;11.064;2023-12-28T05:15:42;47.10;;;30.80;;
68744;SDS011;73143;45.456;11.064;2023-12-28T05:18:19;50.20;;;32.40;;
68744;SDS011;73143;45.456;11.064;2023-12-28T05:20:55;50.80;;;32.60;;
68744;SDS011;73143;45.456;11.064;2023-12-28T05:23:32;49.60;;;31.10;;
68744;SDS011;73143;45.456;11.064;2023-12-28T05:26:09;45.50;;;29.40;;
68744;SDS011;73143;45.456;11.064;2023-12-28T05:28:46;51.00;;;30.00;;
68744;SDS011;73143;45.456;11.064;2023-12-28T05:31:23;54.30;;;33.20;;
68744;SDS011;73143;45.456;11.064;2023-12-28T05:34:00;49.50;;;32.20;;
68744;SDS011;73143;45.456;11.064;2023-12-28T05:36:37;55.80;;;34.50;;
68744;SDS011;73143;45.456;11.064;2023-12-28T05:39:17;47.60;;;28.20;;
68744;SDS011;73143;45.456;11.064;2023-12-28T05:41:54;42.80;;;28.20;;
68744;SDS011;73143;45.456;11.064;2023-12-28T05:44:31;38.50;;;25.40;;
68744;SDS011;73143;45.456;11.064;2023-12-28T05:47:08;42.70;;;27.70;;
68744;SDS011;73143;45.456;11.064;2023-12-28T05:49:45;41.30;;;25.90;;
68744;SDS011;73143;45.456;11.064;2023-12-28T05:52:22;36.90;;;25.10;;
68744;SDS011;73143;45.456;11.064;2023-12-28T05:54:59;39.40;;;25.90;;
68744;SDS011;73143;45.456;11.064;2023-12-28T05:57:37;35.50;;;24.40;;
68744;SDS011;73143;45.456;11.064;2023-12-28T06:00:17;40.60;;;25.40;;
68744;SDS011;73143;45.456;11.064;2023-12-28T06:02:55;40.50;;;25.60;;
68744;SDS011;73143;45.456;11.064;2023-12-28T06:05:31;40.50;;;26.20;;
68744;SDS011;73143;45.456;11.064;2023-12-28T06:08:09;41.00;;;25.60;;
68744;SDS011;73143;45.456;11.064;2023-12-28T06:10:45;43.90;;;26.90;;
68744;SDS011;73143;45.456;11.064;2023-12-28T06:13:22;37.90;;;23.20;;
68744;SDS011;73143;45.456;11.064;2023-12-28T06:15:59;38.30;;;24.40;;
68744;SDS011;73143;45.456;11.064;2023-12-28T06:18:36;40.50;;;27.00;;
68744;SDS011;73143;45.456;11.064;2023-12-28T06:21:13;41.40;;;27.10;;
68744;SDS011;73143;45.456;11.064;2023-12-28T06:23:49;41.90;;;26.30;;
68744;SDS011;73143;45.456;11.064;2023-12-28T06:26:25;40.40;;;27.30;;
68744;SDS011;73143;45.456;11.064;2023-12-28T06:29:02;45.00;;;29.00;;
68744;SDS011;73143;45.456;11.064;2023-12-28T06:31:39;41.00;;;27.60;;
68744;SDS011;73143;45.456;11.064;2023-12-28T06:34:16;44.60;;;29.30;;
68744;SDS011;73143;45.456;11.064;2023-12-28T06:36:52;41.90;;;27.60;;
68744;SDS011;73143;45.456;11.064;2023-12-28T06:39:30;40.30;;;24.40;;
68744;SDS011;73143;45.456;11.064;2023-12-28T06:42:08;41.60;;;26.10;;
68744;SDS011;73143;45.456;11.064;2023-12-28T06:44:45;32.70;;;23.00;;
68744;SDS011;73143;45.456;11.064;2023-12-28T06:47:22;36.90;;;22.70;;
68744;SDS011;73143;45.456;11.064;2023-12-28T06:49:59;40.50;;;24.50;;
68744;SDS011;73143;45.456;11.064;2023-12-28T06:52:37;37.60;;;24.90;;
68744;SDS011;73143;45.456;11.064;2023-12-28T06:55:13;39.60;;;26.70;;
68744;SDS011;73143;45.456;11.064;2023-12-28T06:57:49;37.90;;;25.40;;
68744;SDS011;73143;45.456;11.064;2023-12-28T07:00:26;39.50;;;25.70;;
68744;SDS011;73143;45.456;11.064;2023-12-28T07:03:04;41.30;;;26.70;;
68744;SDS011;73143;45.456;11.064;2023-12-28T07:05:42;42.30;;;28.10;;
68744;SDS011;73143;45.456;11.064;2023-12-28T07:08:18;54.30;;;32.00;;
68744;SDS011;73143;45.456;11.064;2023-12-28T07:10:55;46.40;;;30.70;;
68744;SDS011;73143;45.456;11.064;2023-12-28T07:13:32;48.40;;;30.00;;
68744;SDS011;73143;45.456;11.064;2023-12-28T07:16:09;46.40;;;29.00;;
68744;SDS011;73143;45.456;11.064;2023-12-28T07:18:46;46.70;;;30.30;;
68744;SDS011;73143;45.456;11.064;2023-12-28T07:21:22;48.20;;;32.50;;
68744;SDS011;73143;45.456;11.064;2023-12-28T07:23:59;47.40;;;31.00;;
68744;SDS011;73143;45.456;11.064;2023-12-28T07:26:35;47.20;;;32.00;;
68744;SDS011;73143;45.456;11.064;2023-12-28T07:29:13;51.40;;;32.70;;
68744;SDS011;73143;45.456;11.064;2023-12-28T07:31:49;48.20;;;30.10;;
68744;SDS011;73143;45.456;11.064;2023-12-28T07:34:26;45.70;;;30.20;;
68744;SDS011;73143;45.456;11.064;2023-12-28T07:37:03;44.70;;;29.10;;
68744;SDS011;73143;45.456;11.064;2023-12-28T07:39:40;46.20;;;28.60;;
68744;SDS011;73143;45.456;11.064;2023-12-28T07:42:17;42.90;;;28.80;;
68744;SDS011;73143;45.456;11.064;2023-12-28T07:44:54;49.10;;;30.20;;
68744;SDS011;73143;45.456;11.064;2023-12-28T07:47:32;42.50;;;29.90;;
68744;SDS011;73143;45.456;11.064;2023-12-28T07:50:12;43.90;;;28.40;;
68744;SDS011;73143;45.456;11.064;2023-12-28T07:52:48;44.90;;;29.20;;
68744;SDS011;73143;45.456;11.064;2023-12-28T07:55:25;44.70;;;28.80;;
68744;SDS011;73143;45.456;11.064;2023-12-28T07:58:02;43.70;;;28.40;;
68744;SDS011;73143;45.456;11.064;2023-12-28T08:00:39;46.00;;;30.30;;
68744;SDS011;73143;45.456;11.064;2023-12-28T08:03:16;46.60;;;29.20;;
68744;SDS011;73143;45.456;11.064;2023-12-28T08:05:52;45.80;;;28.90;;
68744;SDS011;73143;45.456;11.064;2023-12-28T08:08:29;45.00;;;30.50;;
68744;SDS011;73143;45.456;11.064;2023-12-28T08:11:05;45.10;;;29.80;;
68744;SDS011;73143;45.456;11.064;2023-12-28T08:13:42;42.50;;;28.20;;
68744;SDS011;73143;45.456;11.064;2023-12-28T08:16:18;46.00;;;30.10;;
68744;SDS011;73143;45.456;11.064;2023-12-28T08:18:55;41.90;;;28.40;;
68744;SDS011;73143;45.456;11.064;2023-12-28T08:21:32;45.30;;;28.50;;
68744;SDS011;73143;45.456;11.064;2023-12-28T08:24:10;46.90;;;30.50;;
68744;SDS011;73143;45.456;11.064;2023-12-28T08:26:48;49.20;;;30.50;;
68744;SDS011;73143;45.456;11.064;2023-12-28T08:29:24;48.60;;;31.10;;
68744;SDS011;73143;45.456;11.064;2023-12-28T08:32:01;44.40;;;28.30;;
68744;SDS011;73143;45.456;11.064;2023-12-28T08:34:39;46.80;;;30.00;;
68744;SDS011;73143;45.456;11.064;2023-12-28T08:37:16;48.80;;;30.20;;
68744;SDS011;73143;45.456;11.064;2023-12-28T08:39:54;47.90;;;32.20;;
68744;SDS011;73143;45.456;11.064;2023-12-28T08:42:31;47.40;;;31.30;;
68744;SDS011;73143;45.456;11.064;2023-12-28T08:45:09;44.30;;;30.10;;
68744;SDS011;73143;45.456;11.064;2023-12-28T08:47:46;47.00;;;30.60;;
68744;SDS011;73143;45.456;11.064;2023-12-28T08:50:23;46.80;;;31.50;;
68744;SDS011;73143;45.456;11.064;2023-12-28T08:52:59;47.40;;;29.10;;
68744;SDS011;73143;45.456;11.064;2023-12-28T08:55:36;46.40;;;29.90;;
68744;SDS011;73143;45.456;11.064;2023-12-28T08:58:13;47.10;;;30.90;;
68744;SDS011;73143;45.456;11.064;2023-12-28T09:00:50;44.80;;;28.70;;
68744;SDS011;73143;45.456;11.064;2023-12-28T09:03:26;43.90;;;28.90;;
68744;SDS011;73143;45.456;11.064;2023-12-28T09:06:04;51.10;;;29.10;;
68744;SDS011;73143;45.456;11.064;2023-12-28T09:08:43;46.90;;;29.90;;
68744;SDS011;73143;45.456;11.064;2023-12-28T09:11:21;43.80;;;29.50;;
68744;SDS011;73143;45.456;11.064;2023-12-28T09:13:58;46.50;;;29.70;;
68744;SDS011;73143;45.456;11.064;2023-12-28T09:16:34;50.30;;;31.60;;
68744;SDS011;73143;45.456;11.064;2023-12-28T09:19:12;49.10;;;31.50;;
68744;SDS011;73143;45.456;11.064;2023-12-28T09:21:49;50.00;;;32.10;;
68744;SDS011;73143;45.456;11.064;2023-12-28T09:24:25;53.10;;;34.00;;
68744;SDS011;73143;45.456;11.064;2023-12-28T09:27:02;51.70;;;33.90;;
68744;SDS011;73143;45.456;11.064;2023-12-28T09:29:39;56.60;;;32.00;;
68744;SDS011;73143;45.456;11.064;2023-12-28T09:32:16;49.70;;;32.50;;
68744;SDS011;73143;45.456;11.064;2023-12-28T09:34:52;51.70;;;34.20;;
68744;SDS011;73143;45.456;11.064;2023-12-28T09:37:29;53.70;;;33.60;;
68744;SDS011;73143;45.456;11.064;2023-12-28T09:40:09;53.10;;;34.40;;
68744;SDS011;73143;45.456;11.064;2023-12-28T09:42:51;60.70;;;37.20;;
68744;SDS011;73143;45.456;11.064;2023-12-28T09:45:35;61.10;;;36.10;;
68744;SDS011;73143;45.456;11.064;2023-12-28T09:48:12;57.00;;;37.40;;
68744;SDS011;73143;45.456;11.064;2023-12-28T09:50:54;58.20;;;37.30;;
68744;SDS011;73143;45.456;11.064;2023-12-28T09:53:31;65.10;;;40.30;;
68744;SDS011;73143;45.456;11.064;2023-12-28T09:56:10;65.50;;;39.60;;
68744;SDS011;73143;45.456;11.064;2023-12-28T10:01:45;67.00;;;43.10;;
68744;SDS011;73143;45.456;11.064;2023-12-28T10:04:23;69.50;;;44.60;;
68744;SDS011;73143;45.456;11.064;2023-12-28T10:07:01;66.70;;;44.40;;
68744;SDS011;73143;45.456;11.064;2023-12-28T10:09:39;70.40;;;43.60;;
68744;SDS011;73143;45.456;11.064;2023-12-28T10:12:17;70.70;;;44.30;;
68744;SDS011;73143;45.456;11.064;2023-12-28T10:14:55;70.40;;;44.70;;
68744;SDS011;73143;45.456;11.064;2023-12-28T10:17:34;70.40;;;45.80;;
68744;SDS011;73143;45.456;11.064;2023-12-28T10:20:13;74.60;;;46.00;;
68744;SDS011;73143;45.456;11.064;2023-12-28T10:22:51;70.60;;;46.90;;
68744;SDS011;73143;45.456;11.064;2023-12-28T10:25:31;71.80;;;47.10;;
68744;SDS011;73143;45.456;11.064;2023-12-28T10:28:10;75.70;;;46.60;;
68744;SDS011;73143;45.456;11.064;2023-12-28T10:30:53;75.30;;;46.70;;
68744;SDS011;73143;45.456;11.064;2023-12-28T10:33:36;72.80;;;47.50;;
68744;SDS011;73143;45.456;11.064;2023-12-28T10:36:14;68.00;;;44.30;;
68744;SDS011;73143;45.456;11.064;2023-12-28T10:38:53;74.10;;;46.80;;
68744;SDS011;73143;45.456;11.064;2023-12-28T10:41:32;72.50;;;46.30;;
68744;SDS011;73143;45.456;11.064;2023-12-28T10:44:12;73.90;;;47.00;;
68744;SDS011;73143;45.456;11.064;2023-12-28T10:46:59;75.20;;;46.00;;
68744;SDS011;73143;45.456;11.064;2023-12-28T10:49:41;72.10;;;45.90;;
68744;SDS011;73143;45.456;11.064;2023-12-28T10:52:23;65.70;;;43.40;;
68744;SDS011;73143;45.456;11.064;2023-12-28T10:55:17;65.20;;;42.00;;
68744;SDS011;73143;45.456;11.064;2023-12-28T10:58:10;69.40;;;42.80;;
68744;SDS011;73143;45.456;11.064;2023-12-28T11:00:58;68.10;;;41.90;;
68744;SDS011;73143;45.456;11.064;2023-12-28T11:03:43;68.30;;;42.70;;
68744;SDS011;73143;45.456;11.064;2023-12-28T11:06:27;68.10;;;43.30;;
68744;SDS011;73143;45.456;11.064;2023-12-28T11:09:09;66.40;;;43.30;;
68744;SDS011;73143;45.456;11.064;2023-12-28T11:11:48;63.70;;;41.10;;
68744;SDS011;73143;45.456;11.064;2023-12-28T11:14:27;65.00;;;40.50;;
68744;SDS011;73143;45.456;11.064;2023-12-28T11:17:06;65.40;;;42.10;;
68744;SDS011;73143;45.456;11.064;2023-12-28T11:19:44;67.30;;;42.70;;
68744;SDS011;73143;45.456;11.064;2023-12-28T11:22:22;66.10;;;42.10;;
68744;SDS011;73143;45.456;11.064;2023-12-28T11:25:00;65.20;;;42.30;;
68744;SDS011;73143;45.456;11.064;2023-12-28T11:27:38;66.20;;;42.00;;
68744;SDS011;73143;45.456;11.064;2023-12-28T11:30:17;62.00;;;40.80;;
68744;SDS011;73143;45.456;11.064;2023-12-28T11:32:58;70.30;;;43.30;;
68744;SDS011;73143;45.456;11.064;2023-12-28T11:35:38;67.90;;;43.50;;
68744;SDS011;73143;45.456;11.064;2023-12-28T11:38:17;64.60;;;41.90;;
68744;SDS011;73143;45.456;11.064;2023-12-28T11:40:55;71.20;;;45.00;;
68744;SDS011;73143;45.456;11.064;2023-12-28T11:43:37;69.60;;;43.80;;
68744;SDS011;73143;45.456;11.064;2023-12-28T11:46:14;71.20;;;43.80;;
68744;SDS011;73143;45.456;11.064;2023-12-28T11:49:05;63.00;;;41.10;;
68744;SDS011;73143;45.456;11.064;2023-12-28T11:51:43;66.40;;;41.80;;
68744;SDS011;73143;45.456;11.064;2023-12-28T11:54:31;67.40;;;42.40;;
68744;SDS011;73143;45.456;11.064;2023-12-28T11:57:08;64.00;;;41.30;;
68744;SDS011;73143;45.456;11.064;2023-12-28T11:59:44;62.80;;;40.80;;
68744;SDS011;73143;45.456;11.064;2023-12-28T12:02:23;65.40;;;41.00;;
68744;SDS011;73143;45.456;11.064;2023-12-28T12:05:00;64.10;;;40.60;;
68744;SDS011;73143;45.456;11.064;2023-12-28T12:07:38;61.60;;;41.40;;
68744;SDS011;73143;45.456;11.064;2023-12-28T12:10:18;58.40;;;38.60;;
68744;SDS011;73143;45.456;11.064;2023-12-28T12:12:56;60.80;;;39.70;;
68744;SDS011;73143;45.456;11.064;2023-12-28T12:15:34;65.40;;;41.10;;
68744;SDS011;73143;45.456;11.064;2023-12-28T12:18:11;60.60;;;38.20;;
68744;SDS011;73143;45.456;11.064;2023-12-28T12:20:48;65.30;;;40.10;;
68744;SDS011;73143;45.456;11.064;2023-12-28T12:23:29;64.40;;;40.60;;
68744;SDS011;73143;45.456;11.064;2023-12-28T12:26:09;62.20;;;39.90;;
68744;SDS011;73143;45.456;11.064;2023-12-28T12:28:46;62.50;;;39.40;;
68744;SDS011;73143;45.456;11.064;2023-12-28T12:31:23;66.40;;;40.30;;
68744;SDS011;73143;45.456;11.064;2023-12-28T12:34:02;58.50;;;39.50;;
68744;SDS011;73143;45.456;11.064;2023-12-28T12:36:40;58.90;;;38.20;;
68744;SDS011;73143;45.456;11.064;2023-12-28T12:39:17;66.20;;;40.00;;
68744;SDS011;73143;45.456;11.064;2023-12-28T12:41:55;62.30;;;38.20;;
68744;SDS011;73143;45.456;11.064;2023-12-28T12:44:32;65.30;;;40.60;;
68744;SDS011;73143;45.456;11.064;2023-12-28T12:47:10;63.60;;;41.70;;
68744;SDS011;73143;45.456;11.064;2023-12-28T12:49:48;62.40;;;40.20;;
68744;SDS011;73143;45.456;11.064;2023-12-28T12:52:31;65.70;;;41.30;;
68744;SDS011;73143;45.456;11.064;2023-12-28T12:55:14;61.70;;;40.20;;
68744;SDS011;73143;45.456;11.064;2023-12-28T12:57:50;63.40;;;39.50;;
68744;SDS011;73143;45.456;11.064;2023-12-28T13:00:29;63.00;;;39.70;;
68744;SDS011;73143;45.456;11.064;2023-12-28T13:03:09;59.50;;;38.80;;
68744;SDS011;73143;45.456;11.064;2023-12-28T13:05:46;60.90;;;39.30;;
68744;SDS011;73143;45.456;11.064;2023-12-28T13:08:22;59.20;;;36.90;;
68744;SDS011;73143;45.456;11.064;2023-12-28T13:11:02;52.20;;;34.40;;
68744;SDS011;73143;45.456;11.064;2023-12-28T13:13:42;57.00;;;36.10;;
68744;SDS011;73143;45.456;11.064;2023-12-28T13:16:19;57.90;;;35.90;;
68744;SDS011;73143;45.456;11.064;2023-12-28T13:18:57;57.70;;;36.80;;
68744;SDS011;73143;45.456;11.064;2023-12-28T13:21:33;58.00;;;36.90;;
68744;SDS011;73143;45.456;11.064;2023-12-28T13:24:11;63.80;;;39.10;;
68744;SDS011;73143;45.456;11.064;2023-12-28T13:26:48;54.40;;;36.70;;
68744;SDS011;73143;45.456;11.064;2023-12-28T13:29:26;58.50;;;37.30;;
68744;SDS011;73143;45.456;11.064;2023-12-28T13:32:06;57.50;;;37.50;;
68744;SDS011;73143;45.456;11.064;2023-12-28T13:34:43;57.20;;;37.40;;
68744;SDS011;73143;45.456;11.064;2023-12-28T13:37:21;55.90;;;36.50;;
68744;SDS011;73143;45.456;11.064;2023-12-28T13:39:58;54.80;;;36.50;;
68744;SDS011;73143;45.456;11.064;2023-12-28T13:42:35;56.90;;;35.60;;
68744;SDS011;73143;45.456;11.064;2023-12-28T13:45:15;58.10;;;35.80;;
68744;SDS011;73143;45.456;11.064;2023-12-28T13:47:52;54.50;;;34.20;;
68744;SDS011;73143;45.456;11.064;2023-12-28T13:50:30;51.60;;;32.90;;
68744;SDS011;73143;45.456;11.064;2023-12-28T13:53:07;55.30;;;35.60;;
68744;SDS011;73143;45.456;11.064;2023-12-28T13:55:45;54.10;;;34.40;;
68744;SDS011;73143;45.456;11.064;2023-12-28T13:58:21;51.80;;;33.60;;
68744;SDS011;73143;45.456;11.064;2023-12-28T14:00:58;53.50;;;34.20;;
68744;SDS011;73143;45.456;11.064;2023-12-28T14:03:36;50.20;;;32.20;;
68744;SDS011;73143;45.456;11.064;2023-12-28T14:06:13;49.00;;;30.90;;
68744;SDS011;73143;45.456;11.064;2023-12-28T14:08:50;48.20;;;31.90;;
68744;SDS011;73143;45.456;11.064;2023-12-28T14:11:26;48.50;;;31.20;;
68744;SDS011;73143;45.456;11.064;2023-12-28T14:14:06;49.80;;;31.60;;
68744;SDS011;73143;45.456;11.064;2023-12-28T14:16:43;49.80;;;32.50;;
68744;SDS011;73143;45.456;11.064;2023-12-28T14:19:18;51.40;;;32.60;;
68744;SDS011;73143;45.456;11.064;2023-12-28T14:21:58;51.30;;;32.80;;
68744;SDS011;73143;45.456;11.064;2023-12-28T14:24:40;47.00;;;32.80;;
68744;SDS011;73143;45.456;11.064;2023-12-28T14:27:21;49.70;;;32.40;;
68744;SDS011;73143;45.456;11.064;2023-12-28T14:30:01;52.40;;;32.10;;
68744;SDS011;73143;45.456;11.064;2023-12-28T14:32:44;54.20;;;31.30;;
68744;SDS011;73143;45.456;11.064;2023-12-28T14:35:26;50.20;;;30.00;;
68744;SDS011;73143;45.456;11.064;2023-12-28T14:38:06;47.60;;;29.70;;
68744;SDS011;73143;45.456;11.064;2023-12-28T14:40:44;45.80;;;28.90;;
68744;SDS011;73143;45.456;11.064;2023-12-28T14:43:23;44.50;;;27.70;;
68744;SDS011;73143;45.456;11.064;2023-12-28T14:46:04;45.80;;;28.00;;
68744;SDS011;73143;45.456;11.064;2023-12-28T14:48:40;46.60;;;29.10;;
68744;SDS011;73143;45.456;11.064;2023-12-28T14:51:17;43.20;;;29.00;;
68744;SDS011;73143;45.456;11.064;2023-12-28T14:53:53;44.30;;;28.50;;
68744;SDS011;73143;45.456;11.064;2023-12-28T14:56:29;44.10;;;28.20;;
68744;SDS011;73143;45.456;11.064;2023-12-28T14:59:18;47.10;;;29.50;;
68744;SDS011;73143;45.456;11.064;2023-12-28T15:01:56;47.10;;;29.70;;
68744;SDS011;73143;45.456;11.064;2023-12-28T15:04:33;55.30;;;30.40;;
68744;SDS011;73143;45.456;11.064;2023-12-28T15:07:12;44.60;;;29.30;;
68744;SDS011;73143;45.456;11.064;2023-12-28T15:09:52;45.20;;;29.90;;
68744;SDS011;73143;45.456;11.064;2023-12-28T15:12:33;51.60;;;30.60;;
68744;SDS011;73143;45.456;11.064;2023-12-28T15:15:15;50.70;;;30.50;;